createdAt,value
2018-06-16T00:01:44.839Z,5.90
2018-06-16T00:04:14.238Z,5.37
2018-06-16T00:06:43.938Z,6.27
2018-06-16T00:09:13.299Z,6.47
2018-06-16T00:11:42.672Z,5.47
2018-06-16T00:14:12.075Z,5.40
2018-06-16T00:16:41.440Z,5.30
2018-06-16T00:19:10.801Z,5.73
2018-06-16T00:21:40.194Z,5.93
2018-06-16T00:24:09.578Z,5.87
2018-06-16T00:26:45.403Z,7.40
2018-06-16T00:29:14.769Z,5.47
2018-06-16T00:31:44.157Z,6.57
2018-06-16T00:34:13.567Z,8.50
2018-06-16T00:36:42.905Z,7.23
2018-06-16T00:39:12.354Z,10.50
2018-06-16T00:41:41.777Z,6.43
2018-06-16T00:44:11.116Z,7.03
2018-06-16T00:46:40.223Z,6.67
2018-06-16T00:49:09.670Z,12.03
2018-06-16T00:51:39.114Z,8.60
2018-06-16T00:54:08.502Z,6.60
2018-06-16T00:56:37.847Z,6.47
2018-06-16T00:59:07.204Z,8.60
2018-06-16T01:01:36.592Z,7.40
2018-06-16T01:04:06.020Z,9.57
2018-06-16T01:06:35.383Z,8.10
2018-06-16T01:09:06.719Z,8.67
2018-06-16T01:11:36.100Z,7.97
2018-06-16T01:14:05.823Z,9.13
2018-06-16T01:16:34.905Z,7.60
2018-06-16T01:19:04.241Z,8.10
2018-06-16T01:21:33.580Z,10.03
2018-06-16T01:24:02.959Z,8.10
2018-06-16T01:26:38.661Z,7.30
2018-06-16T01:29:08.043Z,6.80
2018-06-16T01:31:37.436Z,6.60
2018-06-16T01:34:06.836Z,9.83
2018-06-16T01:36:36.504Z,6.03
2018-06-16T01:39:07.449Z,7.47
2018-06-16T01:41:37.028Z,7.80
2018-06-16T01:44:06.451Z,8.40
2018-06-16T01:46:35.527Z,7.13
2018-06-16T01:49:04.885Z,10.30
2018-06-16T01:51:34.225Z,10.90
2018-06-16T01:54:03.624Z,8.07
2018-06-16T01:56:32.988Z,6.80
2018-06-16T01:59:02.317Z,8.80
2018-06-16T02:01:31.738Z,8.60
2018-06-16T02:04:01.244Z,12.10
2018-06-16T02:06:30.590Z,9.10
2018-06-16T02:08:59.935Z,7.97
2018-06-16T02:11:29.305Z,8.27
2018-06-16T02:13:58.639Z,7.97
2018-06-16T02:16:28.020Z,8.10
2018-06-16T02:18:57.409Z,9.00
2018-06-16T02:21:26.773Z,7.90
2018-06-16T02:23:56.190Z,8.70
2018-06-16T02:26:25.534Z,9.20
2018-06-16T02:28:54.918Z,8.07
2018-06-16T02:31:24.348Z,8.17
2018-06-16T02:33:53.969Z,8.13
2018-06-16T02:36:23.357Z,8.57
2018-06-16T02:38:52.713Z,7.73
2018-06-16T02:41:22.092Z,9.03
2018-06-16T02:43:51.457Z,11.87
2018-06-16T02:46:20.869Z,9.87
2018-06-16T02:48:56.984Z,10.40
2018-06-16T02:51:26.355Z,10.50
2018-06-16T02:53:55.761Z,8.23
2018-06-16T02:56:25.528Z,8.60
2018-06-16T02:58:54.939Z,9.83
2018-06-16T03:01:24.320Z,10.63
2018-06-16T03:03:53.751Z,10.80
2018-06-16T03:06:22.837Z,10.20
2018-06-16T03:08:52.059Z,10.27
2018-06-16T03:11:21.430Z,8.40
2018-06-16T03:13:50.777Z,9.07
2018-06-16T03:16:20.164Z,9.30
2018-06-16T03:18:49.235Z,8.77
2018-06-16T03:21:18.589Z,8.30
2018-06-16T03:23:47.996Z,12.30
2018-06-16T03:26:17.373Z,9.20
2018-06-16T03:28:46.738Z,8.50
2018-06-16T03:31:16.101Z,8.30
2018-06-16T03:33:45.415Z,8.30
2018-06-16T03:36:14.862Z,8.27
2018-06-16T03:38:44.417Z,10.30
2018-06-16T03:41:13.775Z,8.07
2018-06-16T03:43:42.885Z,8.83
2018-06-16T03:46:12.251Z,9.67
2018-06-16T03:48:41.613Z,9.50
2018-06-16T03:51:10.968Z,8.63
2018-06-16T03:53:40.377Z,9.07
2018-06-16T03:56:09.698Z,8.70
2018-06-16T03:58:39.053Z,12.33
2018-06-16T04:01:08.452Z,9.23
2018-06-16T04:03:37.850Z,8.70
2018-06-16T04:06:07.245Z,9.90
2018-06-16T04:08:36.575Z,9.40
2018-06-16T04:11:06.123Z,8.97
2018-06-16T04:13:35.551Z,9.60
2018-06-16T04:16:05.342Z,10.90
2018-06-16T04:18:34.665Z,8.20
2018-06-16T04:21:04.081Z,11.40
2018-06-16T04:23:33.133Z,11.80
2018-06-16T04:26:02.493Z,13.83
2018-06-16T04:28:31.972Z,10.13
2018-06-16T04:31:01.325Z,10.40
2018-06-16T04:33:30.784Z,9.70
2018-06-16T04:36:00.191Z,11.53
2018-06-16T04:38:29.211Z,10.63
2018-06-16T04:40:58.587Z,9.07
2018-06-16T04:43:28.117Z,8.70
2018-06-16T04:45:57.479Z,10.67
2018-06-16T04:48:26.835Z,14.13
2018-06-16T04:50:56.309Z,9.13
2018-06-16T04:53:25.516Z,10.17
2018-06-16T04:55:54.924Z,11.67
2018-06-16T04:58:24.364Z,12.10
2018-06-16T05:00:53.751Z,12.00
2018-06-16T05:03:23.164Z,9.47
2018-06-16T05:05:52.545Z,9.40
2018-06-16T05:08:21.904Z,10.40
2018-06-16T05:10:51.273Z,9.93
2018-06-16T05:13:20.644Z,8.93
2018-06-16T05:15:50.017Z,8.70
2018-06-16T05:18:19.406Z,9.23
2018-06-16T05:20:48.774Z,9.50
2018-06-16T05:23:18.137Z,8.97
2018-06-16T05:25:47.642Z,8.90
2018-06-16T05:28:23.761Z,9.40
2018-06-16T05:30:53.149Z,9.83
2018-06-16T05:33:22.604Z,9.33
2018-06-16T05:35:51.991Z,9.73
2018-06-16T05:38:21.392Z,9.27
2018-06-16T05:40:50.991Z,8.57
2018-06-16T05:43:20.346Z,9.60
2018-06-16T05:45:49.650Z,8.70
2018-06-16T05:48:19.026Z,8.60
2018-06-16T05:50:48.410Z,8.23
2018-06-16T05:53:17.815Z,8.77
2018-06-16T05:55:46.876Z,9.47
2018-06-16T05:58:16.227Z,7.57
2018-06-16T06:00:45.668Z,7.60
2018-06-16T06:03:15.042Z,8.23
2018-06-16T06:05:44.425Z,9.77
2018-06-16T06:08:13.834Z,8.00
2018-06-16T06:10:43.215Z,8.13
2018-06-16T06:13:12.606Z,7.80
2018-06-16T06:15:42.039Z,7.53
2018-06-16T06:18:11.693Z,8.40
2018-06-16T06:20:41.032Z,7.03
2018-06-16T06:23:10.376Z,7.50
2018-06-16T06:25:39.754Z,6.67
2018-06-16T06:28:08.894Z,7.87
2018-06-16T06:30:38.310Z,6.07
2018-06-16T06:33:07.745Z,9.50
2018-06-16T06:35:37.305Z,7.90
2018-06-16T06:38:06.647Z,6.63
2018-06-16T06:40:36.017Z,6.00
2018-06-16T06:43:06.245Z,6.53
2018-06-16T06:45:36.252Z,7.30
2018-06-16T06:48:06.329Z,6.90
2018-06-16T06:50:35.907Z,5.00
2018-06-16T06:53:05.877Z,6.80
2018-06-16T06:55:35.250Z,6.63
2018-06-16T06:58:04.959Z,7.57
2018-06-16T07:00:34.578Z,7.13
2018-06-16T07:03:03.967Z,4.57
2018-06-16T07:05:33.439Z,6.00
2018-06-16T07:08:02.813Z,6.50
2018-06-16T07:10:32.219Z,6.17
2018-06-16T07:13:01.725Z,6.40
2018-06-16T07:15:38.042Z,5.90
2018-06-16T07:18:08.298Z,6.17
2018-06-16T07:20:38.201Z,5.93
2018-06-16T07:23:08.613Z,6.00
2018-06-16T07:25:38.606Z,7.83
2018-06-16T07:28:07.978Z,4.60
2018-06-16T07:30:37.417Z,6.77
2018-06-16T07:33:06.836Z,7.10
2018-06-16T07:35:36.236Z,5.03
2018-06-16T07:38:05.603Z,6.43
2018-06-16T07:40:35.112Z,4.70
2018-06-16T07:43:04.784Z,6.80
2018-06-16T07:45:34.174Z,5.70
2018-06-16T07:48:03.740Z,10.07
2018-06-16T07:50:33.132Z,6.10
2018-06-16T07:53:02.814Z,6.53
2018-06-16T07:55:32.193Z,8.40
2018-06-16T07:58:01.540Z,7.60
2018-06-16T08:00:30.918Z,6.07
2018-06-16T08:03:00.275Z,5.00
2018-06-16T08:05:29.397Z,7.60
2018-06-16T08:07:58.369Z,5.93
2018-06-16T08:10:27.995Z,8.80
2018-06-16T08:12:57.354Z,6.67
2018-06-16T08:15:26.711Z,6.60
2018-06-16T08:17:56.237Z,7.97
2018-06-16T08:20:25.811Z,5.50
2018-06-16T08:25:30.908Z,8.07
2018-06-16T08:28:00.297Z,8.90
2018-06-16T08:30:29.660Z,4.03
2018-06-16T08:32:59.104Z,5.40
2018-06-16T08:35:28.451Z,6.27
2018-06-16T08:37:57.759Z,5.43
2018-06-16T08:40:27.226Z,4.83
2018-06-16T08:42:56.874Z,5.17
2018-06-16T08:45:26.198Z,5.50
2018-06-16T08:47:55.539Z,4.43
2018-06-16T08:50:24.910Z,8.50
2018-06-16T08:52:54.291Z,7.57
2018-06-16T08:55:24.062Z,5.50
2018-06-16T08:57:53.591Z,3.73
2018-06-16T09:00:23.041Z,4.43
2018-06-16T09:02:52.569Z,7.67
2018-06-16T09:05:21.945Z,6.40
2018-06-16T09:07:51.414Z,10.00
2018-06-16T09:13:53.167Z,6.83
2018-06-16T09:16:22.521Z,5.10
2018-06-16T09:18:51.860Z,5.13
2018-06-16T09:21:20.940Z,3.50
2018-06-16T09:23:50.448Z,3.63
2018-06-16T09:26:19.822Z,6.30
2018-06-16T09:28:49.188Z,4.27
2018-06-16T09:31:18.512Z,5.50
2018-06-16T09:33:47.888Z,4.60
2018-06-16T09:36:17.390Z,4.90
2018-06-16T09:38:46.855Z,6.30
2018-06-16T09:41:16.378Z,9.23
2018-06-16T09:43:45.731Z,5.17
2018-06-16T09:46:15.374Z,7.33
2018-06-16T09:48:45.306Z,5.60
2018-06-16T09:51:15.112Z,3.67
2018-06-16T09:53:44.510Z,5.20
2018-06-16T09:56:13.897Z,4.30
2018-06-16T09:58:43.267Z,4.20
2018-06-16T10:01:12.606Z,4.83
2018-06-16T10:03:42.016Z,5.30
2018-06-16T10:06:11.369Z,7.67
2018-06-16T10:08:40.773Z,4.03
2018-06-16T10:11:10.117Z,6.77
2018-06-16T10:13:39.476Z,5.37
2018-06-16T10:16:08.842Z,9.63
2018-06-16T10:18:38.245Z,7.00
2018-06-16T10:21:07.633Z,6.63
2018-06-16T10:23:37.037Z,4.80
2018-06-16T10:26:09.788Z,5.80
2018-06-16T10:28:39.239Z,5.30
2018-06-16T10:31:09.002Z,4.10
2018-06-16T10:33:38.500Z,7.10
2018-06-16T10:36:07.931Z,7.03
2018-06-16T10:38:37.294Z,5.23
2018-06-16T10:41:06.644Z,5.10
2018-06-16T10:43:36.130Z,4.03
2018-06-16T10:46:05.521Z,4.40
2018-06-16T10:48:34.896Z,3.30
2018-06-16T10:51:04.872Z,6.10
2018-06-16T10:53:34.233Z,4.17
2018-06-16T10:56:03.915Z,4.43
2018-06-16T10:58:33.275Z,5.33
2018-06-16T11:01:02.654Z,4.83
2018-06-16T11:03:32.012Z,6.70
2018-06-16T11:06:01.104Z,3.63
2018-06-16T11:08:30.462Z,5.20
2018-06-16T11:10:59.550Z,7.00
2018-06-16T11:13:28.769Z,4.10
2018-06-16T11:15:58.153Z,5.53
2018-06-16T11:18:27.914Z,5.10
2018-06-16T11:20:57.701Z,4.80
2018-06-16T11:23:27.014Z,2.77
2018-06-16T11:25:56.683Z,4.87
2018-06-16T11:28:26.074Z,4.83
2018-06-16T11:30:55.626Z,3.53
2018-06-16T11:33:24.993Z,2.70
2018-06-16T11:35:54.743Z,5.37
2018-06-16T11:38:24.212Z,4.40
2018-06-16T11:40:53.603Z,4.50
2018-06-16T11:43:23.163Z,4.50
2018-06-16T11:45:52.786Z,5.13
2018-06-16T11:48:22.152Z,3.50
2018-06-16T11:50:51.491Z,5.30
2018-06-16T11:53:20.868Z,4.47
2018-06-16T11:55:50.195Z,4.20
2018-06-16T11:58:19.560Z,4.03
2018-06-16T12:00:49.241Z,3.07
2018-06-16T12:03:18.680Z,8.80
2018-06-16T12:05:47.992Z,4.90
2018-06-16T12:08:17.402Z,4.80
2018-06-16T12:10:46.774Z,4.77
2018-06-16T12:13:16.080Z,4.60
2018-06-16T12:15:45.470Z,4.50
2018-06-16T12:18:14.995Z,4.33
2018-06-16T12:20:44.404Z,6.90
2018-06-16T12:23:13.805Z,4.40
2018-06-16T12:25:43.527Z,4.10
2018-06-16T12:28:12.855Z,6.73
2018-06-16T12:30:42.273Z,4.60
2018-06-16T12:33:11.689Z,3.63
2018-06-16T12:35:41.050Z,6.53
2018-06-16T12:38:16.883Z,6.93
2018-06-16T12:40:46.235Z,3.17
2018-06-16T12:43:15.640Z,3.80
2018-06-16T12:45:44.993Z,4.80
2018-06-16T12:48:14.477Z,2.80
2018-06-16T12:50:43.860Z,2.63
2018-06-16T12:53:13.293Z,4.77
2018-06-16T12:55:42.416Z,2.70
2018-06-16T12:58:11.658Z,5.53
2018-06-16T13:00:41.085Z,5.97
2018-06-16T13:03:10.436Z,4.07
2018-06-16T13:05:39.807Z,2.73
2018-06-16T13:08:10.022Z,4.83
2018-06-16T13:10:39.332Z,5.67
2018-06-16T13:13:10.632Z,3.43
2018-06-16T13:15:42.160Z,4.27
2018-06-16T13:18:13.677Z,5.60
2018-06-16T13:20:45.325Z,6.83
2018-06-16T13:23:16.644Z,6.30
2018-06-16T13:25:48.018Z,2.80
2018-06-16T13:28:19.151Z,6.00
2018-06-16T13:30:50.610Z,3.13
2018-06-16T13:33:21.915Z,4.57
2018-06-16T13:35:53.577Z,5.20
2018-06-16T13:38:25.036Z,4.03
2018-06-16T13:40:57.002Z,3.20
2018-06-16T13:43:29.037Z,5.33
2018-06-16T13:46:00.874Z,4.37
2018-06-16T13:48:32.025Z,2.90
2018-06-16T13:51:03.433Z,3.47
2018-06-16T13:53:34.864Z,4.90
2018-06-16T13:56:06.560Z,3.33
2018-06-16T13:58:38.373Z,3.30
2018-06-16T14:01:10.272Z,3.37
2018-06-16T14:03:41.424Z,2.97
2018-06-16T14:06:12.734Z,4.60
2018-06-16T14:08:44.287Z,3.87
2018-06-16T14:11:15.850Z,3.30
2018-06-16T14:13:47.078Z,3.30
2018-06-16T14:16:18.503Z,2.97
2018-06-16T14:18:49.809Z,4.67
2018-06-16T14:21:21.500Z,3.53
2018-06-16T14:23:52.839Z,3.17
2018-06-16T14:26:24.334Z,2.90
2018-06-16T14:28:56.033Z,5.37
2018-06-16T14:31:27.783Z,17.83
2018-06-16T14:33:59.422Z,5.43
2018-06-16T14:36:30.816Z,13.70
2018-06-16T14:39:00.369Z,5.17
2018-06-16T14:41:29.874Z,3.80
2018-06-16T14:43:59.218Z,8.97
2018-06-16T14:46:28.554Z,3.77
2018-06-16T14:48:57.946Z,3.47
2018-06-16T14:51:27.410Z,2.80
2018-06-16T14:53:56.924Z,3.97
2018-06-16T14:56:26.550Z,5.30
2018-06-16T14:58:56.149Z,6.93
2018-06-16T15:01:25.557Z,3.40
2018-06-16T15:03:54.947Z,5.07
2018-06-16T15:06:24.306Z,6.83
2018-06-16T15:08:53.645Z,8.43
2018-06-16T15:11:23.455Z,4.53
2018-06-16T15:13:52.834Z,3.87
2018-06-16T15:16:22.207Z,4.47
2018-06-16T15:18:51.586Z,5.03
2018-06-16T15:21:20.958Z,6.08
2018-06-16T15:23:50.383Z,7.00
2018-06-16T15:26:19.724Z,3.80
2018-06-16T15:28:49.104Z,4.80
2018-06-16T15:31:18.505Z,7.47
2018-06-16T15:33:47.573Z,4.70
2018-06-16T15:36:16.845Z,5.83
2018-06-16T15:38:46.324Z,5.90
2018-06-16T15:41:15.711Z,5.13
2018-06-16T15:43:45.266Z,4.53
2018-06-16T15:46:14.629Z,3.47
2018-06-16T15:48:43.748Z,4.00
2018-06-16T15:51:13.040Z,2.97
2018-06-16T15:53:43.017Z,3.07
2018-06-16T15:56:12.378Z,5.03
2018-06-16T15:58:41.798Z,8.63
2018-06-16T16:01:11.165Z,4.70
2018-06-16T16:03:40.614Z,3.80
2018-06-16T16:06:09.972Z,4.43
2018-06-16T16:08:39.324Z,5.13
2018-06-16T16:11:08.679Z,4.83
2018-06-16T16:13:38.064Z,3.33
2018-06-16T16:16:07.172Z,4.40
2018-06-16T16:18:36.565Z,4.10
2018-06-16T16:21:05.704Z,6.20
2018-06-16T16:23:34.933Z,3.43
2018-06-16T16:26:07.414Z,4.30
2018-06-16T16:28:36.788Z,7.23
2018-06-16T16:31:06.499Z,7.40
2018-06-16T16:33:35.889Z,4.20
2018-06-16T16:36:05.676Z,4.13
2018-06-16T16:38:35.018Z,4.40
2018-06-16T16:41:04.480Z,3.60
2018-06-16T16:43:33.869Z,4.53
2018-06-16T16:46:03.381Z,6.50
2018-06-16T16:48:32.789Z,5.67
2018-06-16T16:51:02.205Z,10.50
2018-06-16T16:53:31.559Z,8.83
2018-06-16T16:56:00.939Z,6.47
2018-06-16T16:58:30.304Z,5.03
2018-06-16T17:00:59.647Z,8.83
2018-06-16T17:03:28.967Z,4.60
2018-06-16T17:05:58.328Z,4.63
2018-06-16T17:08:27.429Z,7.30
2018-06-16T17:10:56.785Z,3.90
2018-06-16T17:13:26.116Z,6.33
2018-06-16T17:15:55.590Z,7.17
2018-06-16T17:18:25.194Z,10.40
2018-06-16T17:20:54.589Z,6.37
2018-06-16T17:23:23.997Z,10.53
2018-06-16T17:25:53.388Z,8.40
2018-06-16T17:28:22.861Z,6.70
2018-06-16T17:30:52.253Z,7.80
2018-06-16T17:33:21.815Z,7.13
2018-06-16T17:35:51.229Z,8.47
2018-06-16T17:38:20.944Z,7.10
2018-06-16T17:40:50.299Z,5.43
2018-06-16T17:43:19.621Z,7.03
2018-06-16T17:45:48.987Z,6.83
2018-06-16T17:48:18.339Z,8.90
2018-06-16T17:50:47.685Z,6.33
2018-06-16T17:53:17.047Z,5.13
2018-06-16T17:55:46.368Z,7.83
2018-06-16T17:58:16.135Z,6.77
2018-06-16T18:00:45.484Z,6.73
2018-06-16T18:03:14.943Z,6.80
2018-06-16T18:05:44.341Z,6.63
2018-06-16T18:08:13.769Z,8.83
2018-06-16T18:10:43.200Z,7.43
2018-06-16T18:13:12.618Z,10.37
2018-06-16T18:15:42.084Z,7.13
2018-06-16T18:18:11.556Z,7.47
2018-06-16T18:20:41.031Z,10.37
2018-06-16T18:23:10.408Z,7.20
2018-06-16T18:25:39.538Z,8.33
2018-06-16T18:28:09.139Z,9.70
2018-06-16T18:30:38.771Z,9.50
2018-06-16T18:33:08.133Z,7.80
2018-06-16T18:35:37.556Z,7.93
2018-06-16T18:38:06.969Z,8.10
2018-06-16T18:40:36.495Z,9.00
2018-06-16T18:43:06.051Z,14.87
2018-06-16T18:45:35.641Z,8.83
2018-06-16T18:48:05.105Z,7.67
2018-06-16T18:50:36.175Z,12.30
2018-06-16T18:53:05.924Z,12.27
2018-06-16T18:55:37.156Z,10.67
2018-06-16T18:58:06.552Z,12.23
2018-06-16T19:00:36.040Z,11.53
2018-06-16T19:03:05.411Z,16.13
2018-06-16T19:05:34.832Z,15.23
2018-06-16T19:08:04.392Z,18.73
2018-06-16T19:10:33.847Z,16.90
2018-06-16T19:13:03.617Z,15.63
2018-06-16T19:15:32.999Z,16.57
2018-06-16T19:18:02.389Z,20.43
2018-06-16T19:20:31.735Z,18.37
2018-06-16T19:23:01.154Z,22.63
2018-06-16T19:25:30.669Z,17.83
2018-06-16T19:28:00.075Z,16.93
2018-06-16T19:30:29.459Z,23.20
2018-06-16T19:32:58.870Z,18.80
2018-06-16T19:35:29.035Z,18.63
2018-06-16T19:37:58.367Z,21.13
2018-06-16T19:40:27.730Z,20.27
2018-06-16T19:42:57.499Z,21.90
2018-06-16T19:45:26.919Z,24.93
2018-06-16T19:47:56.311Z,21.53
2018-06-16T19:50:25.774Z,24.00
2018-06-16T19:52:55.132Z,24.80
2018-06-16T19:55:24.475Z,27.63
2018-06-16T19:57:53.809Z,27.70
2018-06-16T20:00:23.258Z,27.80
2018-06-16T20:02:52.650Z,21.37
2018-06-16T20:05:22.044Z,23.77
2018-06-16T20:07:51.737Z,27.27
2018-06-16T20:10:21.197Z,24.63
2018-06-16T20:12:50.580Z,24.40
2018-06-16T20:15:19.958Z,24.30
2018-06-16T20:17:49.312Z,22.97
2018-06-16T20:20:18.638Z,28.17
2018-06-16T20:22:48.156Z,26.17
2018-06-16T20:25:17.592Z,23.63
2018-06-16T20:27:46.988Z,28.50
2018-06-16T20:30:16.341Z,25.03
2018-06-16T20:32:45.720Z,33.77
2018-06-16T20:35:15.099Z,27.97
2018-06-16T20:37:44.597Z,31.57
2018-06-16T20:40:14.126Z,24.33
2018-06-16T20:42:43.788Z,27.77
2018-06-16T20:45:13.267Z,25.03
2018-06-16T20:47:42.650Z,21.50
2018-06-16T20:50:12.026Z,23.97
2018-06-16T20:52:41.597Z,31.70
2018-06-16T20:55:10.960Z,23.93
2018-06-16T20:57:40.273Z,28.80
2018-06-16T21:00:09.823Z,30.07
2018-06-16T21:02:39.287Z,30.23
2018-06-16T21:05:10.749Z,26.80
2018-06-16T21:07:40.148Z,28.93
2018-06-16T21:13:01.205Z,30.43
2018-06-16T21:15:30.630Z,32.90
2018-06-16T21:17:59.969Z,30.07
2018-06-16T21:20:29.352Z,30.67
2018-06-16T21:22:58.723Z,24.63
2018-06-16T21:25:28.108Z,26.00
2018-06-16T21:27:57.486Z,24.20
2018-06-16T21:30:26.885Z,16.10
2018-06-16T21:32:56.222Z,17.60
2018-06-16T21:35:25.654Z,16.63
2018-06-16T21:37:54.715Z,16.00
2018-06-16T21:40:24.087Z,20.90
2018-06-16T21:42:53.457Z,19.70
2018-06-16T21:45:22.901Z,19.93
2018-06-16T21:47:52.236Z,16.33
2018-06-16T21:50:21.634Z,24.10
2018-06-16T21:52:51.101Z,19.67
2018-06-16T21:55:20.612Z,16.77
2018-06-16T21:57:50.773Z,23.03
2018-06-16T22:03:32.585Z,22.97
2018-06-16T22:06:01.965Z,17.80
2018-06-16T22:08:32.267Z,18.13
2018-06-16T22:11:03.206Z,22.90
2018-06-16T22:13:32.652Z,21.80
2018-06-16T22:16:02.266Z,17.70
2018-06-16T22:18:31.709Z,18.97
2018-06-16T22:21:01.090Z,18.53
2018-06-16T22:23:30.648Z,15.50
2018-06-16T22:26:00.052Z,11.70
2018-06-16T22:28:29.702Z,11.90
2018-06-16T22:30:59.134Z,17.03
2018-06-16T22:33:28.543Z,15.80
2018-06-16T22:35:57.920Z,21.83
2018-06-16T22:38:27.320Z,19.63
2018-06-16T22:40:56.661Z,19.97
2018-06-16T22:43:26.036Z,17.90
2018-06-16T22:45:55.388Z,12.70
2018-06-16T22:48:24.747Z,16.33
2018-06-16T22:50:54.759Z,18.20
2018-06-16T22:53:24.140Z,14.97
2018-06-16T22:55:53.517Z,13.07
2018-06-16T22:58:22.942Z,17.27
2018-06-16T23:00:52.291Z,10.30
2018-06-16T23:03:21.639Z,10.30
2018-06-16T23:05:50.985Z,21.70
2018-06-16T23:08:20.221Z,13.63
2018-06-16T23:10:49.586Z,18.40
2018-06-16T23:13:18.987Z,10.60
2018-06-16T23:15:48.390Z,17.80
2018-06-16T23:18:17.761Z,12.00
2018-06-16T23:23:22.772Z,12.43
2018-06-16T23:25:52.129Z,14.07
2018-06-16T23:28:21.568Z,14.33
2018-06-16T23:30:51.085Z,18.73
2018-06-16T23:33:20.810Z,16.30
2018-06-16T23:35:50.196Z,17.97
2018-06-16T23:38:19.564Z,23.20
2018-06-16T23:40:48.912Z,15.47
2018-06-16T23:43:18.390Z,19.70
2018-06-16T23:45:47.816Z,13.93
2018-06-16T23:48:17.597Z,21.80
2018-06-16T23:50:47.342Z,18.70
2018-06-16T23:53:16.714Z,17.57
2018-06-16T23:55:46.681Z,15.93
2018-06-16T23:58:15.834Z,20.00
